Time;durP1;ratioP1;P1;durP2;ratioP2;P2;SDS_P1;SDS_P2;PMS_P1;PMS_P2;Temp;Humidity;BMP_temperature;BMP_pressure;BME280_temperature;BME280_humidity;BME280_pressure;Samples;Min_cycle;Max_cycle;Signal;HPM_P1;HPM_P2
2023/05/22 00:00:12;;;;;;;6.77;2.63;;;13.10;99.90;;;;;;4417845;28;658853;-74
2023/05/22 00:02:59;;;;;;;8.33;2.70;;;13.10;99.90;;;;;;4440074;28;658542;-74
2023/05/22 00:05:47;;;;;;;3.73;2.43;;;13.00;99.90;;;;;;4419749;28;659196;-74
2023/05/22 00:08:35;;;;;;;7.13;2.80;;;12.90;99.90;;;;;;4435942;28;658324;-72
2023/05/22 00:11:22;;;;;;;5.27;2.60;;;12.90;99.90;;;;;;4443164;28;658437;-74
2023/05/22 00:14:12;;;;;;;5.70;2.50;;;12.90;99.90;;;;;;4441078;28;658787;-75
2023/05/22 00:16:59;;;;;;;5.23;2.50;;;12.90;99.90;;;;;;4406689;28;659522;-76
2023/05/22 00:19:46;;;;;;;6.80;2.93;;;12.80;99.90;;;;;;4421217;28;658540;-75
2023/05/22 00:22:35;;;;;;;8.10;3.20;;;12.80;99.90;;;;;;4440529;28;660060;-75
2023/05/22 00:25:22;;;;;;;6.43;3.03;;;12.70;99.90;;;;;;4418068;28;659851;-75
2023/05/22 00:28:11;;;;;;;3.40;2.50;;;12.70;99.90;;;;;;4441486;28;659196;-75
2023/05/22 00:30:58;;;;;;;6.28;2.65;;;12.60;99.90;;;;;;4420680;28;659519;-73
2023/05/22 00:33:45;;;;;;;4.97;2.73;;;12.60;99.90;;;;;;4410103;28;658537;-72
2023/05/22 00:36:32;;;;;;;4.43;2.83;;;12.50;99.90;;;;;;4436492;28;658623;-75
2023/05/22 00:39:21;;;;;;;8.43;3.00;;;12.50;99.90;;;;;;4440700;28;659248;-75
2023/05/22 00:42:08;;;;;;;8.80;4.13;;;12.50;99.90;;;;;;4412449;28;659062;-74
2023/05/22 00:44:55;;;;;;;4.03;2.60;;;12.40;99.90;;;;;;4419464;28;658890;-73
2023/05/22 00:47:43;;;;;;;7.20;2.70;;;12.40;99.90;;;;;;4443049;28;659033;-75
2023/05/22 00:50:30;;;;;;;5.23;2.63;;;12.40;99.90;;;;;;4421438;28;658673;-73
2023/05/22 00:53:18;;;;;;;6.13;2.67;;;12.30;99.90;;;;;;4440320;28;659314;-74
2023/05/22 00:56:07;;;;;;;3.70;2.23;;;12.30;99.90;;;;;;4417831;28;658854;-73
2023/05/22 00:58:54;;;;;;;3.83;2.60;;;12.20;99.90;;;;;;4439081;28;658634;-75
2023/05/22 01:01:42;;;;;;;6.07;3.00;;;12.20;99.90;;;;;;4419493;28;658791;-74
2023/05/22 01:04:31;;;;;;;5.03;2.90;;;12.10;99.90;;;;;;4434842;28;658440;-75
2023/05/22 01:07:18;;;;;;;3.90;2.77;;;12.10;99.90;;;;;;4406289;28;659270;-75
2023/05/22 01:10:06;;;;;;;8.97;2.77;;;12.00;99.90;;;;;;4419594;28;659625;-74
2023/05/22 01:12:57;;;;;;;8.30;2.73;;;12.00;99.90;;;;;;4434079;28;659365;-74
2023/05/22 01:15:49;;;;;;;5.50;2.97;;;12.00;99.90;;;;;;4435310;28;658497;-72
2023/05/22 01:18:41;;;;;;;4.93;2.70;;;11.90;99.90;;;;;;4415600;28;658904;-75
2023/05/22 01:21:33;;;;;;;6.27;2.93;;;11.90;99.90;;;;;;4408318;28;659115;-75
2023/05/22 01:25:04;;;;;;;4.85;2.85;;;11.80;99.90;;;;;;4417191;28;658738;-73
2023/05/22 01:28:06;;;;;;;6.93;2.73;;;11.80;99.90;;;;;;4322491;28;659062;-74
2023/05/22 01:30:59;;;;;;;4.15;2.58;;;11.80;99.90;;;;;;4414038;28;659014;-76
2023/05/22 01:33:49;;;;;;;8.10;3.07;;;11.70;99.90;;;;;;4392648;28;658921;-74
2023/05/22 01:36:36;;;;;;;3.87;2.50;;;11.70;99.90;;;;;;4418815;28;658767;-75
2023/05/22 01:39:23;;;;;;;5.90;2.87;;;11.60;99.90;;;;;;4436519;28;659144;-75
2023/05/22 01:42:10;;;;;;;6.73;2.83;;;11.60;99.90;;;;;;4408382;28;658857;-74
2023/05/22 01:44:58;;;;;;;4.57;2.93;;;11.60;99.90;;;;;;4439989;28;659557;-75
2023/05/22 01:47:47;;;;;;;4.93;2.57;;;11.60;99.90;;;;;;4427954;28;658609;-72
2023/05/22 01:50:34;;;;;;;6.43;2.80;;;11.50;99.90;;;;;;4441528;28;658780;-75
2023/05/22 01:53:24;;;;;;;6.60;3.20;;;11.50;99.90;;;;;;4409502;28;660691;-74
2023/05/22 01:56:14;;;;;;;5.17;2.83;;;11.50;99.90;;;;;;4418723;28;659098;-74
2023/05/22 01:59:04;;;;;;;6.97;3.00;;;11.50;99.90;;;;;;4419232;28;659814;-74
2023/05/22 02:01:52;;;;;;;3.70;2.57;;;11.50;99.90;;;;;;4418506;28;659041;-75
2023/05/22 02:04:42;;;;;;;5.63;2.87;;;11.50;99.90;;;;;;4435833;28;659254;-73
2023/05/22 02:07:32;;;;;;;7.00;2.50;;;11.60;99.90;;;;;;4411684;28;659204;-73
2023/05/22 02:10:19;;;;;;;7.80;3.07;;;11.50;99.90;;;;;;4439239;28;658770;-75
2023/05/22 02:13:06;;;;;;;5.20;2.97;;;11.50;99.90;;;;;;4413062;28;658974;-74
2023/05/22 02:15:54;;;;;;;7.43;2.92;;;11.40;99.90;;;;;;4436669;28;659422;-75
2023/05/22 02:18:41;;;;;;;5.07;2.57;;;11.40;99.90;;;;;;4419496;28;658451;-74
2023/05/22 02:21:30;;;;;;;4.27;2.73;;;11.30;99.90;;;;;;4431948;28;659377;-75
2023/05/22 02:24:17;;;;;;;6.97;2.97;;;11.30;99.90;;;;;;4417748;28;659242;-75
2023/05/22 02:27:05;;;;;;;6.80;3.30;;;11.30;99.90;;;;;;4432977;28;659347;-73
2023/05/22 02:29:52;;;;;;;4.73;2.70;;;11.20;99.90;;;;;;4415912;28;660148;-74
2023/05/22 02:32:39;;;;;;;6.00;2.80;;;11.20;99.90;;;;;;4436270;28;658598;-72
2023/05/22 02:35:26;;;;;;;5.17;3.00;;;11.20;99.90;;;;;;4422276;28;658525;-75
2023/05/22 02:38:15;;;;;;;6.00;3.00;;;11.20;99.90;;;;;;4440276;28;659852;-75
2023/05/22 02:41:02;;;;;;;4.60;2.77;;;11.10;99.90;;;;;;4416594;28;658888;-75
2023/05/22 02:43:49;;;;;;;4.33;2.70;;;11.10;99.90;;;;;;4428083;28;659251;-71
2023/05/22 02:46:36;;;;;;;9.77;3.07;;;11.10;99.90;;;;;;4269013;28;658424;-72
2023/05/22 02:49:24;;;;;;;5.67;2.80;;;11.10;99.90;;;;;;4299625;28;659174;-72
2023/05/22 02:52:11;;;;;;;6.20;2.87;;;11.10;99.90;;;;;;4289569;28;658640;-72
2023/05/22 02:55:00;;;;;;;8.47;3.40;;;11.10;99.90;;;;;;4442574;28;658311;-74
2023/05/22 02:57:47;;;;;;;8.17;2.80;;;11.10;99.90;;;;;;4423388;28;658865;-75
2023/05/22 03:00:34;;;;;;;7.17;3.33;;;11.10;99.90;;;;;;4440810;28;659020;-75
2023/05/22 03:03:23;;;;;;;7.63;2.80;;;11.10;99.90;;;;;;4423020;28;659730;-72
2023/05/22 03:06:10;;;;;;;5.00;2.97;;;11.10;99.90;;;;;;4422185;28;658637;-76
2023/05/22 03:08:58;;;;;;;8.03;2.43;;;11.00;99.90;;;;;;4441799;28;659450;-75
2023/05/22 03:11:46;;;;;;;6.77;3.00;;;11.00;99.90;;;;;;4433851;28;658848;-73
2023/05/22 03:14:34;;;;;;;7.03;2.70;;;11.00;99.90;;;;;;4442923;28;658834;-75
2023/05/22 03:17:21;;;;;;;5.05;2.97;;;10.90;99.90;;;;;;4419477;28;659072;-75
2023/05/22 03:20:09;;;;;;;4.07;2.57;;;10.90;99.90;;;;;;4446015;28;659193;-75
2023/05/22 03:22:56;;;;;;;4.57;2.97;;;10.90;99.90;;;;;;4413433;28;658357;-73
2023/05/22 03:25:43;;;;;;;8.57;2.80;;;10.90;99.90;;;;;;4441274;28;659631;-72
2023/05/22 03:28:32;;;;;;;6.90;2.70;;;10.80;99.90;;;;;;4421687;28;658811;-74
2023/05/22 03:31:19;;;;;;;6.20;2.90;;;10.80;99.90;;;;;;4441765;28;659333;-75
2023/05/22 03:34:07;;;;;;;5.38;2.80;;;10.80;99.90;;;;;;4426087;28;658585;-75
2023/05/22 03:36:56;;;;;;;7.20;2.60;;;10.80;99.90;;;;;;4443655;28;658881;-74
2023/05/22 03:39:43;;;;;;;5.47;2.73;;;10.90;99.90;;;;;;4397762;28;659571;-74
2023/05/22 03:42:30;;;;;;;8.27;2.73;;;10.90;99.90;;;;;;4419461;28;658622;-72
2023/05/22 03:45:19;;;;;;;11.97;3.13;;;11.00;99.90;;;;;;4445611;28;659437;-75
2023/05/22 03:48:06;;;;;;;8.90;2.93;;;11.00;99.90;;;;;;4423289;28;659827;-75
2023/05/22 03:50:53;;;;;;;5.40;2.80;;;11.10;99.90;;;;;;4438692;28;659637;-74
2023/05/22 03:53:40;;;;;;;7.07;2.70;;;11.10;99.90;;;;;;4420187;28;658729;-74
2023/05/22 03:56:28;;;;;;;7.80;2.90;;;11.20;99.90;;;;;;4441461;28;659310;-77
2023/05/22 03:59:15;;;;;;;7.03;2.70;;;11.30;99.90;;;;;;4427369;28;659133;-72
2023/05/22 04:02:04;;;;;;;5.40;3.10;;;11.40;99.90;;;;;;4441150;28;660239;-75
2023/05/22 04:04:51;;;;;;;4.57;2.80;;;11.50;99.90;;;;;;4417757;28;659174;-75
2023/05/22 04:07:39;;;;;;;7.93;3.00;;;11.60;99.90;;;;;;4437591;28;658808;-74
2023/05/22 04:10:26;;;;;;;6.20;2.77;;;11.70;99.90;;;;;;4418842;28;658790;-75
2023/05/22 04:13:13;;;;;;;6.60;2.63;;;11.80;99.90;;;;;;4443387;28;658564;-76
2023/05/22 04:16:03;;;;;;;5.37;2.67;;;11.90;99.90;;;;;;4413528;28;658713;-76
2023/05/22 04:18:51;;;;;;;8.17;2.80;;;12.00;99.90;;;;;;4432457;28;658943;-74
2023/05/22 04:21:39;;;;;;;7.47;2.53;;;12.10;99.90;;;;;;4438565;28;658935;-76
2023/05/22 04:24:26;;;;;;;5.03;2.77;;;12.20;99.90;;;;;;4416143;28;658781;-77
2023/05/22 04:27:14;;;;;;;4.87;3.03;;;12.30;99.90;;;;;;4438217;28;660798;-76
2023/05/22 04:30:02;;;;;;;7.90;2.90;;;12.40;99.90;;;;;;4420966;28;658602;-76
2023/05/22 04:32:49;;;;;;;4.88;2.80;;;12.50;99.90;;;;;;4441932;28;658718;-77
2023/05/22 04:35:39;;;;;;;4.00;2.40;;;12.70;99.90;;;;;;4419689;28;658963;-76
2023/05/22 04:38:26;;;;;;;6.03;2.67;;;12.80;99.90;;;;;;4417571;28;658545;-75
2023/05/22 04:41:16;;;;;;;6.43;2.80;;;12.80;99.90;;;;;;4445675;28;659249;-76
2023/05/22 04:44:04;;;;;;;6.10;2.57;;;13.00;99.90;;;;;;4405777;28;659444;-76
2023/05/22 04:46:51;;;;;;;4.17;2.63;;;13.20;99.90;;;;;;4421165;28;658304;-75
2023/05/22 04:49:38;;;;;;;6.97;2.73;;;13.30;99.90;;;;;;4437130;28;659704;-75
2023/05/22 04:52:27;;;;;;;5.22;2.70;;;13.40;99.90;;;;;;4417038;28;660018;-74
2023/05/22 04:55:14;;;;;;;4.40;2.67;;;13.50;99.90;;;;;;4438437;28;658744;-75
2023/05/22 04:58:01;;;;;;;6.78;2.72;;;13.70;99.90;;;;;;4421650;28;658474;-76
2023/05/22 05:00:51;;;;;;;6.83;2.70;;;13.80;99.90;;;;;;4433201;28;659233;-75
2023/05/22 05:03:38;;;;;;;5.87;2.97;;;14.00;99.90;;;;;;4413213;28;658746;-75
2023/05/22 05:06:26;;;;;;;9.80;3.07;;;14.00;99.90;;;;;;4417261;28;658704;-75
2023/05/22 05:09:14;;;;;;;5.43;2.60;;;14.20;99.90;;;;;;4444735;28;659262;-75
2023/05/22 05:12:02;;;;;;;8.50;2.93;;;14.40;99.90;;;;;;4419818;28;658744;-76
2023/05/22 05:14:50;;;;;;;4.03;2.67;;;14.50;99.90;;;;;;4434458;28;659088;-73
2023/05/22 05:17:37;;;;;;;3.50;2.53;;;14.70;99.90;;;;;;4434317;28;660102;-77
2023/05/22 05:20:26;;;;;;;8.80;2.60;;;14.80;99.90;;;;;;4438812;28;658367;-75
2023/05/22 05:23:14;;;;;;;3.40;2.30;;;14.90;99.90;;;;;;4417053;28;659136;-75
2023/05/22 05:26:02;;;;;;;7.87;2.37;;;15.10;99.90;;;;;;4417571;28;659165;-76
2023/05/22 05:28:50;;;;;;;8.70;3.27;;;15.30;99.90;;;;;;4437431;28;658707;-74
2023/05/22 05:31:37;;;;;;;8.40;2.90;;;15.40;99.90;;;;;;4436831;28;659190;-76
2023/05/22 05:34:25;;;;;;;9.20;2.50;;;15.60;99.90;;;;;;4425401;28;658909;-73
2023/05/22 05:37:13;;;;;;;9.77;2.43;;;15.70;99.90;;;;;;4442067;28;659650;-75
2023/05/22 05:40:00;;;;;;;7.90;2.50;;;15.90;99.90;;;;;;4429753;28;658522;-74
2023/05/22 05:42:49;;;;;;;11.13;2.97;;;16.00;99.90;;;;;;4442009;28;658996;-74
2023/05/22 05:45:36;;;;;;;5.37;2.70;;;16.20;99.90;;;;;;4413486;28;660153;-76
2023/05/22 05:48:23;;;;;;;5.63;2.30;;;16.30;99.90;;;;;;4436959;28;658469;-77
2023/05/22 05:51:10;;;;;;;15.00;3.30;;;16.40;99.90;;;;;;4408749;28;659174;-74
2023/05/22 05:53:57;;;;;;;5.10;2.43;;;16.60;99.90;;;;;;4436413;28;661041;-75
2023/05/22 05:56:45;;;;;;;7.77;3.13;;;16.80;99.90;;;;;;4433526;28;658748;-74
2023/05/22 05:59:34;;;;;;;8.03;2.93;;;16.90;99.90;;;;;;4439541;28;659470;-76
2023/05/22 06:02:21;;;;;;;7.93;2.73;;;17.00;99.90;;;;;;4421414;28;658960;-77
2023/05/22 06:05:09;;;;;;;11.87;2.77;;;17.20;99.90;;;;;;4440684;28;659961;-76
2023/05/22 06:07:57;;;;;;;6.50;2.33;;;17.30;99.90;;;;;;4416062;28;660021;-76
2023/05/22 06:10:45;;;;;;;9.47;2.47;;;17.50;99.90;;;;;;4437126;28;658426;-77
2023/05/22 06:13:32;;;;;;;10.90;2.60;;;17.60;99.90;;;;;;4419105;28;659697;-78
2023/05/22 06:16:21;;;;;;;6.93;2.80;;;17.70;99.90;;;;;;4438340;28;660212;-77
2023/05/22 06:19:08;;;;;;;8.15;2.53;;;17.90;99.90;;;;;;4413359;28;659603;-76
2023/05/22 06:21:56;;;;;;;10.47;2.70;;;18.00;99.90;;;;;;4415914;28;658613;-76
2023/05/22 06:24:43;;;;;;;9.43;2.83;;;18.00;99.90;;;;;;4443745;28;661399;-76
2023/05/22 06:27:30;;;;;;;5.43;2.80;;;18.20;99.90;;;;;;4418714;28;658725;-73
2023/05/22 06:30:18;;;;;;;11.30;3.10;;;18.40;99.90;;;;;;4440789;28;658829;-77
2023/05/22 06:33:07;;;;;;;6.97;2.60;;;18.60;99.90;;;;;;4417233;28;659619;-74
2023/05/22 06:35:55;;;;;;;8.33;2.63;;;18.70;99.90;;;;;;4442104;28;659153;-77
2023/05/22 06:38:42;;;;;;;9.37;2.70;;;18.90;99.90;;;;;;4418118;28;659953;-73
2023/05/22 06:41:30;;;;;;;11.53;2.57;;;19.00;99.90;;;;;;4443723;28;658916;-76
2023/05/22 06:44:18;;;;;;;9.10;3.17;;;19.20;99.90;;;;;;4421198;28;659986;-77
2023/05/22 06:47:05;;;;;;;8.93;3.03;;;19.10;99.90;;;;;;4427165;28;658738;-73
2023/05/22 06:49:54;;;;;;;5.57;2.73;;;19.10;99.90;;;;;;4441072;28;659338;-77
2023/05/22 06:52:42;;;;;;;7.10;2.63;;;19.10;99.90;;;;;;4419072;28;659318;-75
2023/05/22 06:55:29;;;;;;;11.97;3.20;;;18.90;99.90;;;;;;4455616;28;658241;-76
2023/05/22 06:58:16;;;;;;;5.97;2.67;;;18.90;99.90;;;;;;4414929;28;659632;-77
2023/05/22 07:01:04;;;;;;;14.53;2.80;;;18.80;99.90;;;;;;4439303;28;659579;-78
2023/05/22 07:03:51;;;;;;;11.67;2.70;;;18.90;99.90;;;;;;4404661;28;659845;-77
2023/05/22 07:06:41;;;;;;;7.00;2.50;;;18.90;99.90;;;;;;4438320;28;660566;-76
2023/05/22 07:09:28;;;;;;;8.07;2.60;;;19.00;99.90;;;;;;4418574;28;659196;-78
2023/05/22 07:12:15;;;;;;;5.07;2.80;;;19.20;99.90;;;;;;4422394;28;659274;-76
2023/05/22 07:15:03;;;;;;;5.80;2.60;;;19.40;99.90;;;;;;4440991;28;659212;-78
2023/05/22 07:17:50;;;;;;;7.23;2.73;;;19.60;99.90;;;;;;4427033;28;658822;-73
2023/05/22 07:20:37;;;;;;;7.20;3.20;;;19.70;99.90;;;;;;4435077;28;659466;-77
2023/05/22 07:23:26;;;;;;;5.47;2.53;;;19.70;99.90;;;;;;4441477;28;660519;-78
2023/05/22 07:26:13;;;;;;;8.17;3.00;;;19.90;99.90;;;;;;4414839;28;658546;-76
2023/05/22 07:29:00;;;;;;;6.90;2.97;;;20.00;99.90;;;;;;4422728;28;658635;-75
2023/05/22 07:31:48;;;;;;;11.03;3.07;;;20.10;99.90;;;;;;4438643;28;659788;-76
2023/05/22 07:34:36;;;;;;;6.57;3.10;;;20.30;99.90;;;;;;4425770;28;660205;-74
2023/05/22 07:37:23;;;;;;;10.93;2.87;;;20.40;99.90;;;;;;4436680;28;659981;-77
2023/05/22 07:40:12;;;;;;;5.97;2.87;;;20.20;99.90;;;;;;4423682;28;660353;-73
2023/05/22 07:42:59;;;;;;;8.53;2.97;;;20.50;99.90;;;;;;4437736;28;658640;-75
2023/05/22 07:45:47;;;;;;;7.67;2.80;;;20.60;99.90;;;;;;4420112;28;659620;-77
2023/05/22 07:48:34;;;;;;;7.53;2.57;;;20.80;99.90;;;;;;4437992;28;658915;-79
2023/05/22 07:51:21;;;;;;;5.10;2.50;;;20.70;99.90;;;;;;4422153;28;658980;-75
2023/05/22 07:54:08;;;;;;;4.43;2.40;;;20.60;99.90;;;;;;4440065;28;658831;-73
2023/05/22 07:56:57;;;;;;;3.53;2.60;;;20.70;99.90;;;;;;4416455;28;659505;-76
2023/05/22 07:59:44;;;;;;;8.47;2.40;;;20.80;99.90;;;;;;4439092;28;658843;-76
2023/05/22 08:02:32;;;;;;;7.50;2.30;;;20.90;99.90;;;;;;4418476;28;658297;-77
2023/05/22 08:05:19;;;;;;;7.20;2.23;;;20.90;99.90;;;;;;4441682;28;659498;-77
2023/05/22 08:08:06;;;;;;;2.55;2.10;;;21.10;99.90;;;;;;4421605;28;659616;-78
2023/05/22 08:10:53;;;;;;;5.33;2.40;;;21.00;99.90;;;;;;4431337;28;659276;-77
2023/05/22 08:13:42;;;;;;;7.10;2.60;;;21.10;99.90;;;;;;4419901;28;659314;-73
2023/05/22 08:16:30;;;;;;;10.33;2.70;;;21.10;99.90;;;;;;4431888;28;658890;-73
2023/05/22 08:19:17;;;;;;;11.30;2.50;;;21.40;99.90;;;;;;4413547;28;660231;-75
2023/05/22 08:22:05;;;;;;;4.53;2.30;;;21.60;99.90;;;;;;4428279;28;659662;-74
2023/05/22 08:24:53;;;;;;;6.67;2.30;;;21.40;99.90;;;;;;4439717;28;659750;-77
2023/05/22 08:27:40;;;;;;;10.80;3.73;;;21.20;99.90;;;;;;4428833;28;658507;-74
2023/05/22 08:30:29;;;;;;;11.27;5.60;;;21.10;99.90;;;;;;4441981;28;659763;-78
2023/05/22 08:33:16;;;;;;;12.83;4.90;;;21.10;99.90;;;;;;4418938;28;660029;-76
2023/05/22 08:36:03;;;;;;;15.53;6.80;;;21.20;99.90;;;;;;4427232;28;659562;-75
2023/05/22 08:38:51;;;;;;;19.73;10.43;;;21.20;99.90;;;;;;4416940;28;660126;-75
2023/05/22 08:41:38;;;;;;;11.47;2.30;;;21.20;99.90;;;;;;4441626;28;661510;-75
2023/05/22 08:44:25;;;;;;;6.87;3.33;;;21.20;99.90;;;;;;4421909;28;659789;-77
2023/05/22 08:47:14;;;;;;;12.43;3.97;;;21.20;99.90;;;;;;4440337;28;659710;-79
2023/05/22 08:50:01;;;;;;;7.90;2.30;;;21.30;99.90;;;;;;4301044;28;659369;-75
2023/05/22 08:52:51;;;;;;;10.20;4.63;;;21.20;99.90;;;;;;4253945;28;658575;-74
2023/05/22 08:55:38;;;;;;;12.20;2.95;;;20.70;99.90;;;;;;4285931;28;660669;-78
2023/05/22 08:58:25;;;;;;;8.03;3.40;;;20.70;99.90;;;;;;4417572;28;659944;-76
2023/05/22 09:01:12;;;;;;;8.27;2.60;;;20.40;99.90;;;;;;4444496;28;660420;-78
2023/05/22 09:04:03;;;;;;;5.90;2.63;;;20.60;99.90;;;;;;4435143;28;658713;-73
2023/05/22 09:06:51;;;;;;;7.97;3.03;;;20.90;99.90;;;;;;4425318;28;658753;-74
2023/05/22 09:09:38;;;;;;;9.70;3.93;;;21.20;99.90;;;;;;4429315;28;659567;-79
2023/05/22 09:12:25;;;;;;;5.40;2.10;;;21.40;99.90;;;;;;4413329;28;658804;-74
2023/05/22 09:15:15;;;;;;;5.50;2.50;;;21.40;99.90;;;;;;4433962;28;659786;-77
2023/05/22 09:18:03;;;;;;;8.97;3.77;;;21.50;99.90;;;;;;4412236;28;659730;-80
2023/05/22 09:20:52;;;;;;;9.57;6.00;;;21.80;99.90;;;;;;4429157;28;659039;-76
2023/05/22 09:23:39;;;;;;;6.63;2.50;;;22.10;99.90;;;;;;4433399;28;658761;-80
2023/05/22 09:26:27;;;;;;;11.83;2.90;;;22.40;99.90;;;;;;4419448;28;658488;-78
2023/05/22 09:29:14;;;;;;;9.03;3.97;;;22.70;99.90;;;;;;4430646;28;659187;-74
2023/05/22 09:32:01;;;;;;;5.17;2.80;;;22.50;99.90;;;;;;4416127;28;659028;-78
2023/05/22 09:34:49;;;;;;;10.50;3.17;;;22.80;99.90;;;;;;4430998;28;659126;-80
2023/05/22 09:37:37;;;;;;;5.70;2.50;;;23.00;99.90;;;;;;4414569;28;660055;-79
2023/05/22 09:40:25;;;;;;;9.73;3.47;;;23.20;99.90;;;;;;4439190;28;658776;-79
2023/05/22 09:43:12;;;;;;;5.63;2.60;;;23.00;99.90;;;;;;4415228;28;659751;-77
2023/05/22 09:46:02;;;;;;;8.73;2.87;;;22.90;99.90;;;;;;4440055;28;658312;-76
2023/05/22 09:48:53;;;;;;;9.27;4.33;;;23.10;99.90;;;;;;4435468;28;658355;-74
2023/05/22 09:51:41;;;;;;;11.50;6.60;;;23.20;99.90;;;;;;4421005;28;658669;-76
2023/05/22 09:54:32;;;;;;;12.47;6.87;;;23.10;99.90;;;;;;4431354;28;659720;-79
2023/05/22 09:57:19;;;;;;;12.73;7.73;;;23.20;99.90;;;;;;4416217;28;661513;-79
2023/05/22 10:00:11;;;;;;;8.93;3.23;;;23.50;99.90;;;;;;4407639;28;660009;-78
2023/05/22 10:03:02;;;;;;;12.45;5.68;;;24.00;99.90;;;;;;4415345;28;659093;-77
2023/05/22 10:05:51;;;;;;;7.83;3.53;;;24.20;99.90;;;;;;4413990;28;659527;-79
2023/05/22 10:08:44;;;;;;;17.40;8.97;;;24.20;99.90;;;;;;4416463;28;658796;-79
2023/05/22 10:11:33;;;;;;;20.30;9.68;;;23.90;99.90;;;;;;4396078;28;660107;-79
2023/05/22 10:14:20;;;;;;;3.80;2.58;;;24.20;99.90;;;;;;4430930;28;661085;-74
2023/05/22 10:17:07;;;;;;;3.60;2.70;;;24.20;99.90;;;;;;4437024;28;658915;-78
2023/05/22 10:19:56;;;;;;;6.78;3.42;;;23.90;99.90;;;;;;4438820;28;658420;-75
2023/05/22 10:22:43;;;;;;;8.55;3.55;;;23.80;99.90;;;;;;4438441;28;659653;-79
2023/05/22 10:25:30;;;;;;;11.53;4.63;;;23.80;99.90;;;;;;4426754;28;659431;-76
2023/05/22 10:28:24;;;;;;;8.27;3.90;;;23.90;99.90;;;;;;4447059;28;661656;-79
2023/05/22 10:31:22;;;;;;;6.63;3.25;;;24.20;99.90;;;;;;4422104;28;658740;-78
2023/05/22 10:34:11;;;;;;;10.40;3.22;;;24.20;99.90;;;;;;4408727;28;658723;-79
2023/05/22 10:37:06;;;;;;;10.27;3.72;;;24.30;99.90;;;;;;4415252;28;660101;-79
2023/05/22 10:39:59;;;;;;;12.55;6.05;;;24.50;99.90;;;;;;4416402;28;659617;-77
2023/05/22 10:42:46;;;;;;;8.38;3.88;;;24.40;99.90;;;;;;4379382;28;659973;-79
2023/05/22 10:45:35;;;;;;;5.22;3.63;;;24.20;99.90;;;;;;4446812;28;658939;-77
2023/05/22 10:48:22;;;;;;;9.93;4.32;;;24.70;99.90;;;;;;4410483;28;658732;-77
2023/05/22 10:51:09;;;;;;;4.00;2.92;;;24.90;99.90;;;;;;4436062;28;658515;-76
2023/05/22 10:53:59;;;;;;;5.88;3.20;;;24.90;99.90;;;;;;4420223;28;658448;-78
2023/05/22 10:56:46;;;;;;;9.35;3.72;;;25.00;99.90;;;;;;4418911;28;658908;-79
2023/05/22 10:59:34;;;;;;;8.38;3.55;;;25.10;99.90;;;;;;4441524;28;658990;-76
2023/05/22 11:02:27;;;;;;;4.45;2.40;;;25.30;99.90;;;;;;4422866;28;659269;-79
2023/05/22 11:05:34;;;;;;;5.45;3.08;;;25.00;99.90;;;;;;4403830;28;658943;-74
2023/05/22 11:08:37;;;;;;;8.43;2.70;;;25.30;99.90;;;;;;4420488;28;660241;-77
2023/05/22 11:11:26;;;;;;;8.18;2.65;;;25.40;99.90;;;;;;4416023;28;659199;-76
2023/05/22 11:14:13;;;;;;;3.95;2.88;;;25.40;99.90;;;;;;4437527;28;659123;-78
2023/05/22 11:17:00;;;;;;;5.60;3.03;;;25.50;99.90;;;;;;4416382;28;658497;-76
2023/05/22 11:20:03;;;;;;;7.53;3.08;;;25.80;99.90;;;;;;4443850;28;659330;-76
2023/05/22 11:22:55;;;;;;;10.95;3.67;;;25.90;99.90;;;;;;4387204;28;658542;-77
2023/05/22 11:25:42;;;;;;;7.63;2.80;;;26.10;99.90;;;;;;4415284;28;660025;-77
2023/05/22 11:28:30;;;;;;;8.02;2.60;;;26.30;99.90;;;;;;4431075;28;659386;-75
2023/05/22 11:31:18;;;;;;;3.47;2.72;;;25.70;99.90;;;;;;4431291;28;658657;-78
2023/05/22 11:34:05;;;;;;;7.35;2.67;;;26.10;99.90;;;;;;4418764;28;658933;-74
2023/05/22 11:36:57;;;;;;;4.88;2.28;;;26.20;99.90;;;;;;4435002;28;660303;-77
2023/05/22 11:39:49;;;;;;;3.75;2.83;;;26.40;99.90;;;;;;4414900;28;658573;-77
2023/05/22 11:42:36;;;;;;;5.65;2.95;;;26.20;99.90;;;;;;4394325;28;659941;-78
2023/05/22 11:45:24;;;;;;;6.47;2.90;;;26.10;99.90;;;;;;4442131;28;660133;-77
2023/05/22 11:48:11;;;;;;;6.13;2.80;;;25.90;99.90;;;;;;4408015;28;658333;-77
2023/05/22 11:50:59;;;;;;;3.78;2.50;;;25.30;99.90;;;;;;4439694;28;659357;-74
2023/05/22 11:53:48;;;;;;;6.75;2.65;;;25.30;99.90;;;;;;4419594;28;658760;-77
2023/05/22 11:56:35;;;;;;;4.32;2.88;;;25.20;99.90;;;;;;4428121;28;659274;-76
2023/05/22 11:59:22;;;;;;;10.13;2.90;;;24.90;99.90;;;;;;4445398;28;658596;-77
2023/05/22 12:02:10;;;;;;;9.02;3.15;;;24.80;99.90;;;;;;4438445;28;659305;-75
2023/05/22 12:04:58;;;;;;;6.93;3.40;;;24.80;99.90;;;;;;4439139;28;660082;-74
2023/05/22 12:07:45;;;;;;;4.70;2.70;;;25.20;99.90;;;;;;4426376;28;658502;-74
2023/05/22 12:10:34;;;;;;;4.15;3.05;;;24.90;99.90;;;;;;4441272;28;660370;-77
2023/05/22 12:13:25;;;;;;;4.85;2.80;;;25.10;99.90;;;;;;4419942;28;659564;-76
2023/05/22 12:16:20;;;;;;;6.50;3.20;;;25.30;99.90;;;;;;4420898;28;659581;-77
2023/05/22 12:19:07;;;;;;;7.90;2.58;;;25.40;99.90;;;;;;4422598;28;658412;-77
2023/05/22 12:21:56;;;;;;;4.50;2.90;;;25.40;99.90;;;;;;4427048;28;658441;-76
2023/05/22 12:24:45;;;;;;;6.15;3.25;;;25.40;99.90;;;;;;4443519;28;659085;-77
2023/05/22 12:27:33;;;;;;;4.18;2.50;;;25.80;99.90;;;;;;4418642;28;659718;-77
2023/05/22 12:30:20;;;;;;;5.25;2.75;;;26.30;99.90;;;;;;4426079;28;659342;-75
2023/05/22 12:33:13;;;;;;;6.10;2.67;;;26.10;99.90;;;;;;4440348;28;659722;-77
2023/05/22 12:36:00;;;;;;;7.43;2.50;;;26.20;99.90;;;;;;4400021;28;658999;-74
2023/05/22 12:38:47;;;;;;;4.40;2.75;;;26.60;99.90;;;;;;4436609;28;659783;-77
2023/05/22 12:41:35;;;;;;;7.18;2.72;;;26.80;99.90;;;;;;4436859;28;659526;-74
2023/05/22 12:44:24;;;;;;;6.78;2.60;;;26.40;99.90;;;;;;4444037;28;659533;-78
2023/05/22 12:47:11;;;;;;;4.22;2.50;;;26.70;99.90;;;;;;4420883;28;658639;-77
2023/05/22 12:49:58;;;;;;;5.65;2.75;;;26.80;99.90;;;;;;4437681;28;660104;-77
2023/05/22 12:52:45;;;;;;;3.33;2.60;;;26.20;99.90;;;;;;4418179;28;658583;-77
2023/05/22 12:55:33;;;;;;;3.05;2.45;;;26.20;99.90;;;;;;4429222;28;660460;-77
2023/05/22 12:58:20;;;;;;;5.72;2.65;;;26.60;99.90;;;;;;4427435;28;659229;-75
2023/05/22 13:01:09;;;;;;;7.55;3.50;;;26.40;99.90;;;;;;4445162;28;658751;-78
2023/05/22 13:03:56;;;;;;;17.10;2.55;;;26.60;99.90;;;;;;4420185;28;658488;-75
2023/05/22 13:06:43;;;;;;;5.13;2.50;;;26.30;99.90;;;;;;4443468;28;660178;-77
2023/05/22 13:09:30;;;;;;;4.85;2.72;;;26.20;99.90;;;;;;4421286;28;658791;-76
2023/05/22 13:12:18;;;;;;;4.82;2.88;;;25.80;99.90;;;;;;4428833;28;660039;-77
2023/05/22 13:15:06;;;;;;;7.00;3.10;;;25.70;99.90;;;;;;4420873;28;659655;-75
2023/05/22 13:17:55;;;;;;;8.48;2.72;;;25.30;99.90;;;;;;4436099;28;659051;-77
2023/05/22 13:20:42;;;;;;;6.32;2.75;;;25.80;99.90;;;;;;4414901;28;659083;-78
2023/05/22 13:23:30;;;;;;;4.82;2.85;;;25.90;99.90;;;;;;4439777;28;658573;-75
2023/05/22 13:26:17;;;;;;;4.18;2.78;;;26.00;99.90;;;;;;4440708;28;660227;-78
2023/05/22 13:29:05;;;;;;;5.13;2.70;;;26.40;99.90;;;;;;4428249;28;658364;-74
2023/05/22 13:31:52;;;;;;;9.90;2.80;;;26.50;99.90;;;;;;4443485;28;659141;-77
2023/05/22 13:34:42;;;;;;;5.82;3.30;;;25.80;99.90;;;;;;4435057;28;658661;-76
2023/05/22 13:37:29;;;;;;;12.57;3.50;;;25.60;99.90;;;;;;4441351;28;659136;-78
2023/05/22 13:40:17;;;;;;;9.60;4.32;;;25.50;99.90;;;;;;4413182;28;659542;-76
2023/05/22 13:43:04;;;;;;;6.65;3.63;;;25.10;99.90;;;;;;4438723;28;658657;-77
2023/05/22 13:45:51;;;;;;;9.50;2.95;;;25.00;99.90;;;;;;4406005;28;658676;-77
2023/05/22 13:48:39;;;;;;;6.95;2.45;;;24.50;99.90;;;;;;4440398;28;659239;-77
2023/05/22 13:51:27;;;;;;;4.13;2.83;;;24.20;99.90;;;;;;4404975;28;658713;-76
2023/05/22 13:54:15;;;;;;;9.82;2.92;;;23.80;99.90;;;;;;4437988;28;658538;-75
2023/05/22 13:57:02;;;;;;;8.25;2.70;;;23.70;99.90;;;;;;4419098;28;659249;-77
2023/05/22 13:59:49;;;;;;;3.97;2.85;;;23.60;99.90;;;;;;4440617;28;658696;-77
2023/05/22 14:02:37;;;;;;;4.20;2.97;;;23.50;99.90;;;;;;4417986;28;658956;-77
2023/05/22 14:05:24;;;;;;;7.80;2.90;;;23.40;99.90;;;;;;4441585;28;660076;-78
2023/05/22 14:08:13;;;;;;;4.97;2.63;;;23.50;99.90;;;;;;4412275;28;658358;-76
2023/05/22 14:11:00;;;;;;;7.53;3.03;;;23.80;99.90;;;;;;4419472;28;659223;-74
2023/05/22 14:13:48;;;;;;;7.10;3.72;;;24.60;99.90;;;;;;4437045;28;659742;-77
2023/05/22 14:16:35;;;;;;;4.90;2.88;;;25.20;99.90;;;;;;4420906;28;658772;-75
2023/05/22 14:19:23;;;;;;;9.50;2.90;;;25.30;99.90;;;;;;4441436;28;660039;-77
2023/05/22 14:22:10;;;;;;;5.75;2.90;;;25.80;99.90;;;;;;4406911;28;659902;-75